ANA183 PHNL-RJAA
Flight info
| Callsign | ANA183 |
|---|---|
| Flight time | N/A |
| Altitude | 36000 |
| Route | KEOLA3 LILIA DCT DOGIF DCT 25N170W/N0486F380 27N180E 29N170E 31N160E 33N150E/N0486F400 MORAY OTR15 POVAL Y813 LUBLA |
| Aircraft | A388/J-SADE2E3FGHIJ3J4J5M1RWXY/LB1D1 |
Departure
| Time | 2026-05-05 07:02 |
|---|---|
| Airport | Daniel K. Inouye International Airport (PHNL) |
Arrival
| Time | N/A |
|---|---|
| Airport | Narita International Airport (RJAA) |
| Time | Latitude | Longitude | Altitude | Speed | Heading |
|---|---|---|---|---|---|
| 2026-05-05 06:38 | 21.32884 | -157.92320 | 29 ft | 0 kts | 319° |
| 2026-05-05 06:50 | 21.32869 | -157.92306 | 28 ft | 4 kts | 319° |
| 2026-05-05 06:50 | 21.32850 | -157.92287 | 28 ft | 4 kts | 312° |
| 2026-05-05 06:50 | 21.32832 | -157.92265 | 28 ft | 4 kts | 312° |
| 2026-05-05 06:51 | 21.32831 | -157.92261 | 27 ft | 4 kts | 347° |
| 2026-05-05 06:51 | 21.32845 | -157.92245 | 27 ft | 4 kts | 53° |
| 2026-05-05 06:51 | 21.32869 | -157.92237 | 27 ft | 0 kts | 189° |
| 2026-05-05 06:55 | 21.32834 | -157.92243 | 29 ft | 13 kts | 189° |
| 2026-05-05 06:55 | 21.32734 | -157.92254 | 29 ft | 15 kts | 185° |
| 2026-05-05 06:55 | 21.32692 | -157.92299 | 29 ft | 10 kts | 265° |
| 2026-05-05 06:55 | 21.32692 | -157.92442 | 29 ft | 28 kts | 270° |
| 2026-05-05 06:56 | 21.32693 | -157.92660 | 29 ft | 26 kts | 270° |
| 2026-05-05 06:56 | 21.32740 | -157.92835 | 29 ft | 24 kts | 283° |
| 2026-05-05 06:56 | 21.32744 | -157.93013 | 29 ft | 25 kts | 269° |
| 2026-05-05 06:56 | 21.32743 | -157.93203 | 29 ft | 26 kts | 270° |
| 2026-05-05 06:57 | 21.32743 | -157.93401 | 29 ft | 27 kts | 270° |
| 2026-05-05 06:57 | 21.32743 | -157.93606 | 29 ft | 28 kts | 270° |
| 2026-05-05 06:57 | 21.32742 | -157.93814 | 29 ft | 28 kts | 270° |
| 2026-05-05 06:57 | 21.32738 | -157.94007 | 29 ft | 19 kts | 252° |
| 2026-05-05 06:58 | 21.32653 | -157.94115 | 28 ft | 21 kts | 210° |
| 2026-05-05 06:58 | 21.32517 | -157.94195 | 30 ft | 24 kts | 208° |
| 2026-05-05 06:58 | 21.32358 | -157.94289 | 30 ft | 28 kts | 209° |
| 2026-05-05 06:58 | 21.32183 | -157.94394 | 30 ft | 30 kts | 209° |
| 2026-05-05 06:59 | 21.31995 | -157.94507 | 29 ft | 32 kts | 209° |
| 2026-05-05 06:59 | 21.31804 | -157.94620 | 30 ft | 31 kts | 208° |
| 2026-05-05 06:59 | 21.31614 | -157.94656 | 29 ft | 27 kts | 173° |
| 2026-05-05 06:59 | 21.31430 | -157.94631 | 29 ft | 27 kts | 171° |
| 2026-05-05 07:00 | 21.31236 | -157.94604 | 29 ft | 28 kts | 173° |
| 2026-05-05 07:00 | 21.31039 | -157.94580 | 29 ft | 29 kts | 173° |
| 2026-05-05 07:00 | 21.30843 | -157.94571 | 30 ft | 27 kts | 179° |
| 2026-05-05 07:00 | 21.30710 | -157.94569 | 29 ft | 13 kts | 171° |
| 2026-05-05 07:01 | 21.30682 | -157.94532 | 24 ft | 8 kts | 100° |
| 2026-05-05 07:01 | 21.30680 | -157.94407 | 33 ft | 38 kts | 90° |
| 2026-05-05 07:01 | 21.30684 | -157.93818 | 33 ft | 115 kts | 90° |
| 2026-05-05 07:01 | 21.30680 | -157.92764 | 37 ft | 162 kts | 88° |
| 2026-05-05 07:02 | 21.30674 | -157.91531 | 477 ft | 164 kts | 88° |
| 2026-05-05 07:02 | 21.30649 | -157.90324 | 1018 ft | 159 kts | 89° |
| 2026-05-05 07:02 | 21.30344 | -157.89190 | 1476 ft | 170 kts | 115° |
| 2026-05-05 07:02 | 21.29540 | -157.88202 | 1821 ft | 183 kts | 128° |
| 2026-05-05 07:03 | 21.28614 | -157.87181 | 2039 ft | 199 kts | 130° |
| 2026-05-05 07:03 | 21.27547 | -157.86159 | 2089 ft | 221 kts | 145° |
| 2026-05-05 07:03 | 21.25897 | -157.85793 | 2229 ft | 265 kts | 180° |
| 2026-05-05 07:03 | 21.24103 | -157.86485 | 2765 ft | 285 kts | 213° |
| 2026-05-05 07:04 | 21.22785 | -157.88054 | 3743 ft | 286 kts | 241° |
| 2026-05-05 07:04 | 21.22249 | -157.90082 | 4677 ft | 283 kts | 266° |
| 2026-05-05 07:04 | 21.22192 | -157.92153 | 5712 ft | 278 kts | 270° |
| 2026-05-05 07:04 | 21.22355 | -157.94195 | 6565 ft | 281 kts | 276° |
| 2026-05-05 07:05 | 21.22603 | -157.96306 | 7253 ft | 287 kts | 275° |
| 2026-05-05 07:05 | 21.22836 | -157.98422 | 8113 ft | 286 kts | 276° |
| 2026-05-05 07:05 | 21.23092 | -158.00545 | 8867 ft | 290 kts | 277° |